sensor_id;sensor_type;location;lat;lon;timestamp;pressure;altitude;pressure_sealevel;temperature;humidity
42067;BME280;27734;47.028;28.820;2023-12-20T00:00:01;100510.13;;;4.86;72.22
42067;BME280;27734;47.028;28.820;2023-12-20T00:02:35;100509.16;;;4.84;72.45
42067;BME280;27734;47.028;28.820;2023-12-20T00:05:08;100505.58;;;4.82;73.06
42067;BME280;27734;47.028;28.820;2023-12-20T00:07:39;100495.98;;;4.81;72.99
42067;BME280;27734;47.028;28.820;2023-12-20T00:10:11;100500.11;;;4.77;73.09
42067;BME280;27734;47.028;28.820;2023-12-20T00:12:45;100494.83;;;4.76;73.43
42067;BME280;27734;47.028;28.820;2023-12-20T00:15:18;100497.42;;;4.76;73.07
42067;BME280;27734;47.028;28.820;2023-12-20T00:17:49;100500.02;;;4.76;72.92
42067;BME280;27734;47.028;28.820;2023-12-20T00:20:22;100493.11;;;4.76;72.97
42067;BME280;27734;47.028;28.820;2023-12-20T00:22:54;100486.11;;;4.75;73.58
42067;BME280;27734;47.028;28.820;2023-12-20T00:25:25;100480.85;;;4.74;73.91
42067;BME280;27734;47.028;28.820;2023-12-20T00:27:56;100485.78;;;4.69;73.92
42067;BME280;27734;47.028;28.820;2023-12-20T00:30:27;100483.00;;;4.66;74.40
42067;BME280;27734;47.028;28.820;2023-12-20T00:32:59;100480.40;;;4.66;73.85
42067;BME280;27734;47.028;28.820;2023-12-20T00:35:30;100476.00;;;4.65;73.66
42067;BME280;27734;47.028;28.820;2023-12-20T00:38:01;100472.51;;;4.64;74.31
42067;BME280;27734;47.028;28.820;2023-12-20T00:40:32;100469.91;;;4.64;73.63
42067;BME280;27734;47.028;28.820;2023-12-20T00:43:04;100469.91;;;4.64;73.80
42067;BME280;27734;47.028;28.820;2023-12-20T00:45:35;100470.70;;;4.63;73.97
42067;BME280;27734;47.028;28.820;2023-12-20T00:48:07;100468.20;;;4.65;73.94
42067;BME280;27734;47.028;28.820;2023-12-20T00:50:38;100469.08;;;4.65;74.12
42067;BME280;27734;47.028;28.820;2023-12-20T00:53:09;100467.49;;;4.67;73.90
42067;BME280;27734;47.028;28.820;2023-12-20T00:55:40;100455.38;;;4.68;73.97
42067;BME280;27734;47.028;28.820;2023-12-20T00:58:12;100444.01;;;4.66;74.23
42067;BME280;27734;47.028;28.820;2023-12-20T01:00:45;100443.92;;;4.64;74.25
42067;BME280;27734;47.028;28.820;2023-12-20T01:03:16;100440.31;;;4.62;74.48
42067;BME280;27734;47.028;28.820;2023-12-20T01:05:47;100438.55;;;4.61;75.25
42067;BME280;27734;47.028;28.820;2023-12-20T01:08:18;100432.42;;;4.61;75.08
42067;BME280;27734;47.028;28.820;2023-12-20T01:10:49;100431.54;;;4.60;75.37
42067;BME280;27734;47.028;28.820;2023-12-20T01:13:21;100437.63;;;4.61;75.06
42067;BME280;27734;47.028;28.820;2023-12-20T01:15:52;100436.65;;;4.59;74.97
42067;BME280;27734;47.028;28.820;2023-12-20T01:18:23;100432.98;;;4.55;75.16
42067;BME280;27734;47.028;28.820;2023-12-20T01:20:54;100427.78;;;4.55;74.76
42067;BME280;27734;47.028;28.820;2023-12-20T01:23:25;100424.27;;;4.55;75.29
42067;BME280;27734;47.028;28.820;2023-12-20T01:25:56;100434.66;;;4.55;74.79
42067;BME280;27734;47.028;28.820;2023-12-20T01:28:29;100425.80;;;4.51;75.18
42067;BME280;27734;47.028;28.820;2023-12-20T01:31:00;100421.22;;;4.47;74.78
42067;BME280;27734;47.028;28.820;2023-12-20T01:33:31;100422.75;;;4.43;74.82
42067;BME280;27734;47.028;28.820;2023-12-20T01:36:02;100426.14;;;4.42;74.96
42067;BME280;27734;47.028;28.820;2023-12-20T01:38:33;100416.48;;;4.40;75.11
42067;BME280;27734;47.028;28.820;2023-12-20T01:41:05;100418.81;;;4.35;75.09
42067;BME280;27734;47.028;28.820;2023-12-20T01:43:36;100412.70;;;4.35;75.59
42067;BME280;27734;47.028;28.820;2023-12-20T01:46:07;100407.59;;;4.36;75.67
42067;BME280;27734;47.028;28.820;2023-12-20T01:48:38;100407.50;;;4.35;75.36
42067;BME280;27734;47.028;28.820;2023-12-20T01:51:09;100395.44;;;4.35;75.71
42067;BME280;27734;47.028;28.820;2023-12-20T01:53:42;100388.44;;;4.34;75.76
42067;BME280;27734;47.028;28.820;2023-12-20T01:56:15;100397.94;;;4.34;75.42
42067;BME280;27734;47.028;28.820;2023-12-20T01:58:47;100391.91;;;4.35;75.08
42067;BME280;27734;47.028;28.820;2023-12-20T02:01:21;100384.12;;;4.35;75.36
42067;BME280;27734;47.028;28.820;2023-12-20T02:03:52;100373.64;;;4.33;75.44
42067;BME280;27734;47.028;28.820;2023-12-20T02:06:24;100385.56;;;4.29;75.77
42067;BME280;27734;47.028;28.820;2023-12-20T02:09:00;100384.68;;;4.29;75.59
42067;BME280;27734;47.028;28.820;2023-12-20T02:11:33;100380.28;;;4.28;75.75
42067;BME280;27734;47.028;28.820;2023-12-20T02:14:05;100379.30;;;4.26;75.64
42067;BME280;27734;47.028;28.820;2023-12-20T02:16:36;100378.38;;;4.25;76.28
42067;BME280;27734;47.028;28.820;2023-12-20T02:19:13;100374.81;;;4.23;76.48
42067;BME280;27734;47.028;28.820;2023-12-20T02:21:48;100361.64;;;4.20;76.10
42067;BME280;27734;47.028;28.820;2023-12-20T02:24:17;100357.28;;;4.19;75.97
42067;BME280;27734;47.028;28.820;2023-12-20T02:26:49;100350.98;;;4.16;76.30
42067;BME280;27734;47.028;28.820;2023-12-20T02:29:20;100343.10;;;4.14;75.92
42067;BME280;27734;47.028;28.820;2023-12-20T02:31:51;100345.52;;;4.11;76.52
42067;BME280;27734;47.028;28.820;2023-12-20T02:34:22;100340.97;;;4.07;75.99
42067;BME280;27734;47.028;28.820;2023-12-20T02:36:53;100339.96;;;4.05;76.08
42067;BME280;27734;47.028;28.820;2023-12-20T02:39:24;100332.91;;;4.02;75.96
42067;BME280;27734;47.028;28.820;2023-12-20T02:41:55;100331.02;;;4.00;76.48
42067;BME280;27734;47.028;28.820;2023-12-20T02:44:26;100326.61;;;3.99;76.00
42067;BME280;27734;47.028;28.820;2023-12-20T02:47:00;100322.25;;;3.98;76.35
42067;BME280;27734;47.028;28.820;2023-12-20T02:49:32;100322.06;;;3.94;76.02
42067;BME280;27734;47.028;28.820;2023-12-20T02:52:04;100320.27;;;3.93;76.92
42067;BME280;27734;47.028;28.820;2023-12-20T02:54:36;100326.25;;;3.92;76.57
42067;BME280;27734;47.028;28.820;2023-12-20T02:57:08;100313.09;;;3.89;75.99
42067;BME280;27734;47.028;28.820;2023-12-20T02:59:39;100308.63;;;3.87;76.33
42067;BME280;27734;47.028;28.820;2023-12-20T03:02:10;100312.72;;;3.83;76.53
42067;BME280;27734;47.028;28.820;2023-12-20T03:04:41;100309.95;;;3.80;76.59
42067;BME280;27734;47.028;28.820;2023-12-20T03:07:12;100315.96;;;3.79;76.18
42067;BME280;27734;47.028;28.820;2023-12-20T03:09:43;100311.56;;;3.78;77.08
42067;BME280;27734;47.028;28.820;2023-12-20T03:12:19;100312.36;;;3.77;76.81
42067;BME280;27734;47.028;28.820;2023-12-20T03:14:49;100311.98;;;3.71;76.95
42067;BME280;27734;47.028;28.820;2023-12-20T03:17:20;100311.89;;;3.69;76.21
42067;BME280;27734;47.028;28.820;2023-12-20T03:19:51;100304.05;;;3.68;76.41
42067;BME280;27734;47.028;28.820;2023-12-20T03:22:22;100303.13;;;3.67;77.25
42067;BME280;27734;47.028;28.820;2023-12-20T03:24:53;100305.64;;;3.66;76.73
42067;BME280;27734;47.028;28.820;2023-12-20T03:27:24;100295.16;;;3.64;76.64
42067;BME280;27734;47.028;28.820;2023-12-20T03:29:55;100294.98;;;3.61;76.95
42067;BME280;27734;47.028;28.820;2023-12-20T03:32:27;100294.89;;;3.59;76.14
42067;BME280;27734;47.028;28.820;2023-12-20T03:34:58;100283.53;;;3.57;76.71
42067;BME280;27734;47.028;28.820;2023-12-20T03:37:29;100282.65;;;3.57;76.87
42067;BME280;27734;47.028;28.820;2023-12-20T03:40:00;100281.73;;;3.56;77.21
42067;BME280;27734;47.028;28.820;2023-12-20T03:42:31;100274.86;;;3.57;77.10
42067;BME280;27734;47.028;28.820;2023-12-20T03:45:04;100276.54;;;3.56;77.45
42067;BME280;27734;47.028;28.820;2023-12-20T03:47:36;100279.86;;;3.54;77.36
42067;BME280;27734;47.028;28.820;2023-12-20T03:50:08;100276.27;;;3.52;77.19
42067;BME280;27734;47.028;28.820;2023-12-20T03:52:39;100267.78;;;3.54;77.84
42067;BME280;27734;47.028;28.820;2023-12-20T03:55:10;100265.88;;;3.52;77.12
42067;BME280;27734;47.028;28.820;2023-12-20T03:57:41;100268.30;;;3.49;77.06
42067;BME280;27734;47.028;28.820;2023-12-20T04:00:14;100258.47;;;3.43;76.71
42067;BME280;27734;47.028;28.820;2023-12-20T04:02:45;100254.16;;;3.44;77.33
42067;BME280;27734;47.028;28.820;2023-12-20T04:05:16;100253.19;;;3.41;77.22
42067;BME280;27734;47.028;28.820;2023-12-20T04:07:47;100244.48;;;3.41;77.17
42067;BME280;27734;47.028;28.820;2023-12-20T04:10:20;100257.45;;;3.41;77.63
42067;BME280;27734;47.028;28.820;2023-12-20T04:12:51;100255.69;;;3.40;77.12
42067;BME280;27734;47.028;28.820;2023-12-20T04:15:22;100255.59;;;3.38;77.56
42067;BME280;27734;47.028;28.820;2023-12-20T04:17:53;100263.09;;;3.34;78.06
42067;BME280;27734;47.028;28.820;2023-12-20T04:20:27;100256.80;;;3.30;77.39
42067;BME280;27734;47.028;28.820;2023-12-20T04:22:58;100252.44;;;3.29;77.28
42067;BME280;27734;47.028;28.820;2023-12-20T04:25:29;100256.42;;;3.24;77.53
42067;BME280;27734;47.028;28.820;2023-12-20T04:28:00;100261.14;;;3.16;77.53
42067;BME280;27734;47.028;28.820;2023-12-20T04:30:31;100264.56;;;3.15;77.71
42067;BME280;27734;47.028;28.820;2023-12-20T04:33:02;100249.00;;;3.15;77.53
42067;BME280;27734;47.028;28.820;2023-12-20T04:35:33;100250.71;;;3.15;77.82
42067;BME280;27734;47.028;28.820;2023-12-20T04:38:05;100240.94;;;3.11;77.37
42067;BME280;27734;47.028;28.820;2023-12-20T04:40:36;100239.23;;;3.11;77.92
42067;BME280;27734;47.028;28.820;2023-12-20T04:43:07;100246.22;;;3.12;78.18
42067;BME280;27734;47.028;28.820;2023-12-20T04:45:39;100243.72;;;3.14;78.21
42067;BME280;27734;47.028;28.820;2023-12-20T04:48:11;100243.72;;;3.14;77.37
42067;BME280;27734;47.028;28.820;2023-12-20T04:50:43;100253.20;;;3.13;78.22
42067;BME280;27734;47.028;28.820;2023-12-20T04:53:14;100248.02;;;3.13;78.38
42067;BME280;27734;47.028;28.820;2023-12-20T04:55:45;100241.64;;;3.08;78.40
42067;BME280;27734;47.028;28.820;2023-12-20T04:58:16;100237.09;;;3.04;78.14
42067;BME280;27734;47.028;28.820;2023-12-20T05:00:47;100237.09;;;3.04;78.37
42067;BME280;27734;47.028;28.820;2023-12-20T05:03:19;100243.06;;;3.03;78.50
42067;BME280;27734;47.028;28.820;2023-12-20T05:05:50;100240.47;;;3.03;78.42
42067;BME280;27734;47.028;28.820;2023-12-20T05:08:21;100228.30;;;3.02;78.19
42067;BME280;27734;47.028;28.820;2023-12-20T05:10:52;100229.22;;;3.02;78.58
42067;BME280;27734;47.028;28.820;2023-12-20T05:13:24;100224.91;;;3.03;78.08
42067;BME280;27734;47.028;28.820;2023-12-20T05:15:55;100223.21;;;3.03;78.68
42067;BME280;27734;47.028;28.820;2023-12-20T05:18:27;100230.20;;;3.04;78.64
42067;BME280;27734;47.028;28.820;2023-12-20T05:20:58;100232.00;;;3.05;78.73
42067;BME280;27734;47.028;28.820;2023-12-20T05:23:29;100231.17;;;3.06;78.75
42067;BME280;27734;47.028;28.820;2023-12-20T05:26:02;100229.50;;;3.07;78.14
42067;BME280;27734;47.028;28.820;2023-12-20T05:28:33;100222.70;;;3.09;78.34
42067;BME280;27734;47.028;28.820;2023-12-20T05:31:05;100227.19;;;3.12;78.54
42067;BME280;27734;47.028;28.820;2023-12-20T05:33:36;100221.18;;;3.13;79.06
42067;BME280;27734;47.028;28.820;2023-12-20T05:36:07;100217.80;;;3.14;78.67
42067;BME280;27734;47.028;28.820;2023-12-20T05:38:42;100225.67;;;3.15;79.26
42067;BME280;27734;47.028;28.820;2023-12-20T05:41:13;100229.14;;;3.16;79.34
42067;BME280;27734;47.028;28.820;2023-12-20T05:43:44;100231.73;;;3.16;78.50
42067;BME280;27734;47.028;28.820;2023-12-20T05:46:17;100224.69;;;3.13;78.77
42067;BME280;27734;47.028;28.820;2023-12-20T05:48:49;100226.64;;;3.17;78.69
42067;BME280;27734;47.028;28.820;2023-12-20T05:51:21;100234.61;;;3.20;78.56
42067;BME280;27734;47.028;28.820;2023-12-20T05:53:52;100225.31;;;3.24;78.79
42067;BME280;27734;47.028;28.820;2023-12-20T05:56:23;100222.02;;;3.27;79.08
42067;BME280;27734;47.028;28.820;2023-12-20T05:58:55;100224.00;;;3.31;78.85
42067;BME280;27734;47.028;28.820;2023-12-20T06:01:26;100223.17;;;3.32;79.52
42067;BME280;27734;47.028;28.820;2023-12-20T06:03:57;100219.00;;;3.34;78.85
42067;BME280;27734;47.028;28.820;2023-12-20T06:06:30;100212.11;;;3.34;78.58
42067;BME280;27734;47.028;28.820;2023-12-20T06:09:03;100219.19;;;3.37;79.17
42067;BME280;27734;47.028;28.820;2023-12-20T06:11:34;100219.00;;;3.34;79.34
42067;BME280;27734;47.028;28.820;2023-12-20T06:14:06;100218.73;;;3.29;78.91
42067;BME280;27734;47.028;28.820;2023-12-20T06:16:39;100221.04;;;3.24;79.51
42067;BME280;27734;47.028;28.820;2023-12-20T06:19:12;100225.22;;;3.22;78.92
42067;BME280;27734;47.028;28.820;2023-12-20T06:21:49;100226.04;;;3.21;79.30
42067;BME280;27734;47.028;28.820;2023-12-20T06:24:23;100222.91;;;3.27;80.04
42067;BME280;27734;47.028;28.820;2023-12-20T06:26:56;100230.95;;;3.32;79.18
42067;BME280;27734;47.028;28.820;2023-12-20T06:29:27;100211.41;;;3.37;79.73
42067;BME280;27734;47.028;28.820;2023-12-20T06:31:58;100224.74;;;3.43;79.96
42067;BME280;27734;47.028;28.820;2023-12-20T06:34:30;100227.80;;;3.51;79.62
42067;BME280;27734;47.028;28.820;2023-12-20T06:37:01;100226.81;;;3.64;79.49
42067;BME280;27734;47.028;28.820;2023-12-20T06:39:33;100228.94;;;3.71;79.47
42067;BME280;27734;47.028;28.820;2023-12-20T06:42:05;100238.89;;;3.78;79.61
42067;BME280;27734;47.028;28.820;2023-12-20T06:44:36;100235.68;;;3.82;79.90
42067;BME280;27734;47.028;28.820;2023-12-20T06:47:08;100231.46;;;3.84;79.18
42067;BME280;27734;47.028;28.820;2023-12-20T06:49:40;100227.42;;;3.89;78.87
42067;BME280;27734;47.028;28.820;2023-12-20T06:52:11;100231.30;;;3.96;79.89
42067;BME280;27734;47.028;28.820;2023-12-20T06:54:42;100235.04;;;4.01;79.29
42067;BME280;27734;47.028;28.820;2023-12-20T06:57:14;100230.91;;;4.05;79.77
42067;BME280;27734;47.028;28.820;2023-12-20T06:59:47;100222.94;;;4.17;79.50
42067;BME280;27734;47.028;28.820;2023-12-20T07:02:18;100224.25;;;4.25;79.11
42067;BME280;27734;47.028;28.820;2023-12-20T07:04:50;100228.08;;;4.31;79.51
42067;BME280;27734;47.028;28.820;2023-12-20T07:07:22;100223.31;;;4.39;79.84
42067;BME280;27734;47.028;28.820;2023-12-20T07:09:54;100229.94;;;4.49;79.47
42067;BME280;27734;47.028;28.820;2023-12-20T07:12:26;100225.97;;;4.56;79.31
42067;BME280;27734;47.028;28.820;2023-12-20T07:14:58;100211.59;;;4.62;79.35
42067;BME280;27734;47.028;28.820;2023-12-20T07:17:29;100207.82;;;4.72;80.12
42067;BME280;27734;47.028;28.820;2023-12-20T07:20:01;100202.04;;;4.78;79.23
42067;BME280;27734;47.028;28.820;2023-12-20T07:22:34;100197.25;;;4.85;79.73
42067;BME280;27734;47.028;28.820;2023-12-20T07:25:07;100188.91;;;4.91;79.67
42067;BME280;27734;47.028;28.820;2023-12-20T07:27:58;100189.39;;;5.00;79.59
42067;BME280;27734;47.028;28.820;2023-12-20T07:30:34;100189.96;;;5.11;79.53
42067;BME280;27734;47.028;28.820;2023-12-20T07:33:10;100199.05;;;5.19;79.71
42067;BME280;27734;47.028;28.820;2023-12-20T07:35:44;100192.45;;;5.26;79.56
42067;BME280;27734;47.028;28.820;2023-12-20T07:38:16;100195.21;;;5.29;79.19
42067;BME280;27734;47.028;28.820;2023-12-20T07:40:51;100195.45;;;5.34;78.85
42067;BME280;27734;47.028;28.820;2023-12-20T07:43:22;100187.16;;;5.41;79.33
42067;BME280;27734;47.028;28.820;2023-12-20T07:46:01;100194.59;;;5.51;78.85
42067;BME280;27734;47.028;28.820;2023-12-20T07:48:50;100197.91;;;5.65;79.07
42067;BME280;27734;47.028;28.820;2023-12-20T07:51:28;100189.75;;;5.75;79.61
42067;BME280;27734;47.028;28.820;2023-12-20T07:54:00;100185.08;;;5.86;79.58
42067;BME280;27734;47.028;28.820;2023-12-20T07:56:31;100189.83;;;5.95;79.42
42067;BME280;27734;47.028;28.820;2023-12-20T07:59:02;100180.66;;;6.02;79.03
42067;BME280;27734;47.028;28.820;2023-12-20T08:01:34;100189.80;;;6.11;78.83
42067;BME280;27734;47.028;28.820;2023-12-20T08:04:07;100185.70;;;6.17;78.63
42067;BME280;27734;47.028;28.820;2023-12-20T08:06:38;100174.03;;;6.26;79.00
42067;BME280;27734;47.028;28.820;2023-12-20T08:09:09;100169.37;;;6.39;79.06
42067;BME280;27734;47.028;28.820;2023-12-20T08:11:41;100168.19;;;6.50;79.06
42067;BME280;27734;47.028;28.820;2023-12-20T08:14:17;100171.30;;;6.61;78.94
42067;BME280;27734;47.028;28.820;2023-12-20T08:16:51;100167.17;;;6.66;78.80
42067;BME280;27734;47.028;28.820;2023-12-20T08:19:26;100171.93;;;6.75;78.83
42067;BME280;27734;47.028;28.820;2023-12-20T08:22:01;100174.05;;;6.83;78.69
42067;BME280;27734;47.028;28.820;2023-12-20T08:24:34;100170.13;;;6.93;78.70
42067;BME280;27734;47.028;28.820;2023-12-20T08:27:06;100161.83;;;7.02;78.43
42067;BME280;27734;47.028;28.820;2023-12-20T08:29:47;100160.52;;;7.12;78.39
42067;BME280;27734;47.028;28.820;2023-12-20T08:32:22;100156.61;;;7.22;78.38
42067;BME280;27734;47.028;28.820;2023-12-20T08:34:58;100152.61;;;7.30;78.28
42067;BME280;27734;47.028;28.820;2023-12-20T08:37:31;100142.50;;;7.37;78.35
42067;BME280;27734;47.028;28.820;2023-12-20T08:40:02;100138.61;;;7.49;78.43
42067;BME280;27734;47.028;28.820;2023-12-20T08:42:34;100131.11;;;7.56;78.17
42067;BME280;27734;47.028;28.820;2023-12-20T08:45:11;100123.66;;;7.66;77.81
42067;BME280;27734;47.028;28.820;2023-12-20T08:47:42;100122.36;;;7.77;78.14
42067;BME280;27734;47.028;28.820;2023-12-20T08:50:15;100111.35;;;7.84;77.94
42067;BME280;27734;47.028;28.820;2023-12-20T08:52:49;100098.66;;;7.94;78.23
42067;BME280;27734;47.028;28.820;2023-12-20T08:55:21;100097.30;;;8.03;77.93
42067;BME280;27734;47.028;28.820;2023-12-20T08:57:53;100095.04;;;8.13;77.61
42067;BME280;27734;47.028;28.820;2023-12-20T09:00:27;100092.78;;;8.22;77.93
42067;BME280;27734;47.028;28.820;2023-12-20T09:03:00;100096.52;;;8.28;77.43
42067;BME280;27734;47.028;28.820;2023-12-20T09:05:32;100083.63;;;8.33;76.91
42067;BME280;27734;47.028;28.820;2023-12-20T09:08:04;100086.53;;;8.41;77.29
42067;BME280;27734;47.028;28.820;2023-12-20T09:10:38;100077.86;;;8.42;76.54
42067;BME280;27734;47.028;28.820;2023-12-20T09:13:10;100078.13;;;8.48;76.99
42067;BME280;27734;47.028;28.820;2023-12-20T09:15:44;100073.02;;;8.51;77.12
42067;BME280;27734;47.028;28.820;2023-12-20T09:18:22;100060.11;;;8.56;76.75
42067;BME280;27734;47.028;28.820;2023-12-20T09:20:57;100061.33;;;8.66;76.48
42067;BME280;27734;47.028;28.820;2023-12-20T09:23:29;100061.66;;;8.75;76.99
42067;BME280;27734;47.028;28.820;2023-12-20T09:26:01;100052.30;;;8.81;76.14
42067;BME280;27734;47.028;28.820;2023-12-20T09:28:33;100048.25;;;8.90;76.18
42067;BME280;27734;47.028;28.820;2023-12-20T09:31:09;100044.05;;;8.95;76.24
42067;BME280;27734;47.028;28.820;2023-12-20T09:33:43;100033.74;;;8.99;76.00
42067;BME280;27734;47.028;28.820;2023-12-20T09:36:24;100039.24;;;9.07;75.71
42067;BME280;27734;47.028;28.820;2023-12-20T09:38:56;100033.20;;;9.10;75.17
42067;BME280;27734;47.028;28.820;2023-12-20T09:41:29;100029.66;;;9.08;75.22
42067;BME280;27734;47.028;28.820;2023-12-20T09:44:04;100029.77;;;9.11;75.13
42067;BME280;27734;47.028;28.820;2023-12-20T09:46:36;100023.86;;;9.16;75.28
42067;BME280;27734;47.028;28.820;2023-12-20T09:49:18;100026.68;;;9.23;74.91
42067;BME280;27734;47.028;28.820;2023-12-20T09:51:51;100021.65;;;9.29;74.79
42067;BME280;27734;47.028;28.820;2023-12-20T09:54:28;100008.81;;;9.37;74.76
42067;BME280;27734;47.028;28.820;2023-12-20T09:57:02;100003.72;;;9.41;75.14
42067;BME280;27734;47.028;28.820;2023-12-20T09:59:34;100003.88;;;9.46;75.09
42067;BME280;27734;47.028;28.820;2023-12-20T10:02:11;99996.17;;;9.52;74.17
42067;BME280;27734;47.028;28.820;2023-12-20T10:04:57;100001.61;;;9.58;74.67
42067;BME280;27734;47.028;28.820;2023-12-20T10:07:28;99990.41;;;9.62;73.78
42067;BME280;27734;47.028;28.820;2023-12-20T10:10:00;99992.28;;;9.66;73.88
42067;BME280;27734;47.028;28.820;2023-12-20T10:12:33;99982.88;;;9.73;74.37
42067;BME280;27734;47.028;28.820;2023-12-20T10:15:05;99969.87;;;9.76;73.77
42067;BME280;27734;47.028;28.820;2023-12-20T10:17:36;99967.34;;;9.79;73.64
42067;BME280;27734;47.028;28.820;2023-12-20T10:20:13;99959.53;;;9.81;72.99
42067;BME280;27734;47.028;28.820;2023-12-20T10:22:45;99957.05;;;9.85;73.66
42067;BME280;27734;47.028;28.820;2023-12-20T10:25:18;99953.64;;;9.88;72.84
42067;BME280;27734;47.028;28.820;2023-12-20T10:30:49;99943.34;;;9.94;72.82
42067;BME280;27734;47.028;28.820;2023-12-20T10:33:26;99938.14;;;9.96;72.29
42067;BME280;27734;47.028;28.820;2023-12-20T10:36:06;99933.03;;;10.00;72.07
42067;BME280;27734;47.028;28.820;2023-12-20T10:38:42;99923.43;;;10.01;71.88
42067;BME280;27734;47.028;28.820;2023-12-20T10:41:15;99915.61;;;10.02;71.53
42067;BME280;27734;47.028;28.820;2023-12-20T10:43:49;99908.58;;;10.01;71.79
42067;BME280;27734;47.028;28.820;2023-12-20T10:46:21;99893.77;;;10.03;71.40
42067;BME280;27734;47.028;28.820;2023-12-20T10:48:54;99890.31;;;10.04;71.14
42067;BME280;27734;47.028;28.820;2023-12-20T10:51:28;99885.16;;;10.07;71.60
42067;BME280;27734;47.028;28.820;2023-12-20T10:54:00;99884.38;;;10.10;71.08
42067;BME280;27734;47.028;28.820;2023-12-20T10:56:35;99877.47;;;10.14;71.08
42067;BME280;27734;47.028;28.820;2023-12-20T10:59:13;99871.39;;;10.15;70.96
42067;BME280;27734;47.028;28.820;2023-12-20T11:01:48;99870.52;;;10.16;70.27
42067;BME280;27734;47.028;28.820;2023-12-20T11:04:28;99861.82;;;10.17;70.70
42067;BME280;27734;47.028;28.820;2023-12-20T11:07:11;99858.28;;;10.15;70.64
42067;BME280;27734;47.028;28.820;2023-12-20T11:09:53;99850.38;;;10.13;70.49
42067;BME280;27734;47.028;28.820;2023-12-20T11:12:35;99857.25;;;10.10;69.97
42067;BME280;27734;47.028;28.820;2023-12-20T11:15:12;99852.83;;;10.07;69.69
42067;BME280;27734;47.028;28.820;2023-12-20T11:17:47;99844.05;;;10.06;69.51
42067;BME280;27734;47.028;28.820;2023-12-20T11:20:34;99844.05;;;10.06;69.14
42067;BME280;27734;47.028;28.820;2023-12-20T11:23:07;99837.89;;;10.04;67.97
42067;BME280;27734;47.028;28.820;2023-12-20T11:31:41;99818.17;;;10.19;68.45
42067;BME280;27734;47.028;28.820;2023-12-20T11:34:15;99807.84;;;10.25;68.52
42067;BME280;27734;47.028;28.820;2023-12-20T11:36:48;99808.88;;;10.30;68.38
42067;BME280;27734;47.028;28.820;2023-12-20T11:39:23;99814.31;;;10.36;67.76
42067;BME280;27734;47.028;28.820;2023-12-20T11:41:57;99810.05;;;10.41;67.86
42067;BME280;27734;47.028;28.820;2023-12-20T11:44:38;99807.55;;;10.46;67.70
42067;BME280;27734;47.028;28.820;2023-12-20T11:47:10;99792.77;;;10.50;67.70
42067;BME280;27734;47.028;28.820;2023-12-20T11:49:54;99793.71;;;10.52;67.39
42067;BME280;27734;47.028;28.820;2023-12-20T11:52:26;99784.17;;;10.55;67.03
42067;BME280;27734;47.028;28.820;2023-12-20T11:54:58;99786.91;;;10.60;66.80
42067;BME280;27734;47.028;28.820;2023-12-20T11:57:32;99785.23;;;10.64;66.94
42067;BME280;27734;47.028;28.820;2023-12-20T12:00:10;99779.14;;;10.65;66.71
42067;BME280;27734;47.028;28.820;2023-12-20T12:02:56;99771.34;;;10.68;66.04
42067;BME280;27734;47.028;28.820;2023-12-20T12:05:28;99773.14;;;10.70;66.40
42067;BME280;27734;47.028;28.820;2023-12-20T12:08:08;99774.08;;;10.72;66.45
42067;BME280;27734;47.028;28.820;2023-12-20T12:10:42;99767.05;;;10.71;65.84
42067;BME280;27734;47.028;28.820;2023-12-20T12:13:14;99761.80;;;10.71;66.30
42067;BME280;27734;47.028;28.820;2023-12-20T12:15:45;99756.63;;;10.74;65.92
42067;BME280;27734;47.028;28.820;2023-12-20T12:18:18;99757.50;;;10.75;65.53
42067;BME280;27734;47.028;28.820;2023-12-20T12:20:50;99760.96;;;10.72;65.79
42067;BME280;27734;47.028;28.820;2023-12-20T12:23:25;99750.43;;;10.71;65.72
42067;BME280;27734;47.028;28.820;2023-12-20T12:28:55;99752.07;;;10.67;64.98
42067;BME280;27734;47.028;28.820;2023-12-20T12:31:27;99757.21;;;10.63;64.74
42067;BME280;27734;47.028;28.820;2023-12-20T12:33:58;99754.48;;;10.58;64.31
42067;BME280;27734;47.028;28.820;2023-12-20T12:36:32;99750.06;;;10.55;64.71
42067;BME280;27734;47.028;28.820;2023-12-20T12:39:04;99748.20;;;10.51;63.23
42067;BME280;27734;47.028;28.820;2023-12-20T12:41:39;99741.06;;;10.44;64.53
42067;BME280;27734;47.028;28.820;2023-12-20T12:44:13;99739.20;;;10.40;64.28
42067;BME280;27734;47.028;28.820;2023-12-20T12:46:44;99738.22;;;10.35;64.36
42067;BME280;27734;47.028;28.820;2023-12-20T12:49:19;99743.23;;;10.27;63.31
42067;BME280;27734;47.028;28.820;2023-12-20T12:52:10;99749.09;;;10.17;63.12
42067;BME280;27734;47.028;28.820;2023-12-20T12:54:51;99734.04;;;10.10;63.26
42067;BME280;27734;47.028;28.820;2023-12-20T12:57:35;99740.83;;;10.01;63.22
42067;BME280;27734;47.028;28.820;2023-12-20T13:00:12;99738.88;;;9.93;63.11
42067;BME280;27734;47.028;28.820;2023-12-20T13:02:49;99749.24;;;9.88;63.03
42067;BME280;27734;47.028;28.820;2023-12-20T13:05:22;99749.12;;;9.83;63.07
42067;BME280;27734;47.028;28.820;2023-12-20T13:08:06;99742.72;;;9.74;63.05
42067;BME280;27734;47.028;28.820;2023-12-20T13:10:39;99740.84;;;9.68;63.29
42067;BME280;27734;47.028;28.820;2023-12-20T13:13:10;99743.34;;;9.63;63.24
42067;BME280;27734;47.028;28.820;2023-12-20T13:15:42;99749.23;;;9.56;62.34
42067;BME280;27734;47.028;28.820;2023-12-20T13:18:22;99744.66;;;9.49;62.60
42067;BME280;27734;47.028;28.820;2023-12-20T13:20:54;99745.44;;;9.45;63.05
42067;BME280;27734;47.028;28.820;2023-12-20T13:23:25;99743.57;;;9.41;63.12
42067;BME280;27734;47.028;28.820;2023-12-20T13:25:58;99742.56;;;9.35;62.98
42067;BME280;27734;47.028;28.820;2023-12-20T13:28:29;99745.92;;;9.31;63.03
42067;BME280;27734;47.028;28.820;2023-12-20T13:34:26;99742.30;;;9.26;63.52